You are listening to:
KDED CTAF/Misc - DeLand, Florida, United States

KDED 010635Z AUTO 00000KT 10SM CLR 24/23 A3010 RMK AO2 LTG DSNT NE T02380226

If stream doesn't start automatically press the play button
If stream stops then reload player then press play